createdAt,value
2018-07-31T00:04:08.572Z,5.67
2018-07-31T00:08:49.244Z,5.60
2018-07-31T00:13:29.624Z,5.37
2018-07-31T00:18:10.595Z,5.33
2018-07-31T00:22:50.521Z,5.47
2018-07-31T00:27:31.563Z,4.83
2018-07-31T00:32:11.766Z,5.33
2018-07-31T00:36:52.074Z,4.90
2018-07-31T00:41:32.247Z,5.50
2018-07-31T00:46:12.568Z,5.50
2018-07-31T00:50:53.164Z,5.23
2018-07-31T00:55:33.176Z,5.50
2018-07-31T01:00:13.188Z,5.43
2018-07-31T01:04:53.982Z,5.23
2018-07-31T01:09:34.643Z,5.57
2018-07-31T01:14:16.247Z,6.23
2018-07-31T01:18:56.515Z,5.53
2018-07-31T01:23:37.871Z,5.10
2018-07-31T01:28:18.217Z,5.33
2018-07-31T01:32:58.541Z,5.77
2018-07-31T01:37:38.707Z,5.43
2018-07-31T01:42:19.171Z,5.60
2018-07-31T01:46:59.428Z,5.80
2018-07-31T01:51:39.645Z,5.70
2018-07-31T01:56:19.827Z,5.50
2018-07-31T02:01:01.387Z,5.50
2018-07-31T02:05:41.758Z,5.20
2018-07-31T02:10:22.736Z,5.90
2018-07-31T02:15:03.604Z,5.63
2018-07-31T02:19:43.638Z,5.60
2018-07-31T02:24:24.482Z,5.73
2018-07-31T02:29:05.685Z,5.37
2018-07-31T02:33:45.796Z,5.57
2018-07-31T02:38:26.039Z,6.03
2018-07-31T02:43:06.355Z,5.63
2018-07-31T02:47:47.948Z,6.43
2018-07-31T02:52:28.600Z,6.10
2018-07-31T02:57:08.567Z,6.00
2018-07-31T03:01:48.632Z,6.10
2018-07-31T03:06:28.881Z,6.23
2018-07-31T03:11:09.239Z,5.57
2018-07-31T03:15:49.384Z,5.40
2018-07-31T03:20:30.692Z,6.37
2018-07-31T03:25:10.788Z,6.03
2018-07-31T03:29:50.985Z,6.60
2018-07-31T03:34:32.485Z,6.30
2018-07-31T03:39:12.650Z,6.20
2018-07-31T03:43:54.223Z,6.43
2018-07-31T03:48:34.523Z,5.97
2018-07-31T03:53:14.615Z,6.13
2018-07-31T03:57:56.032Z,6.47
2018-07-31T04:02:36.201Z,6.20
2018-07-31T04:07:17.244Z,6.93
2018-07-31T04:11:58.004Z,6.70
2018-07-31T04:16:38.636Z,6.30
2018-07-31T04:21:18.654Z,6.80
2018-07-31T04:25:58.878Z,6.97
2018-07-31T04:30:39.760Z,6.90
2018-07-31T04:35:20.391Z,7.07
2018-07-31T04:40:01.265Z,6.87
2018-07-31T04:44:42.120Z,6.40
2018-07-31T04:49:23.316Z,6.60
2018-07-31T04:54:03.852Z,6.63
2018-07-31T04:58:45.834Z,6.30
2018-07-31T05:03:26.088Z,5.83
2018-07-31T05:08:07.832Z,6.93
2018-07-31T05:12:47.972Z,6.73
2018-07-31T05:17:28.621Z,6.63
2018-07-31T05:22:09.019Z,6.67
2018-07-31T05:26:49.435Z,6.27
2018-07-31T05:31:30.634Z,7.37
2018-07-31T05:36:11.171Z,7.53
2018-07-31T05:40:51.132Z,7.63
2018-07-31T05:45:31.804Z,7.37
2018-07-31T05:50:11.896Z,7.13
2018-07-31T05:54:52.568Z,7.90
2018-07-31T05:59:32.835Z,7.07
2018-07-31T06:04:14.708Z,6.47
2018-07-31T06:08:54.928Z,6.77
2018-07-31T06:13:35.287Z,7.47
2018-07-31T06:18:16.697Z,6.97
2018-07-31T06:22:56.985Z,7.10
2018-07-31T06:27:37.983Z,7.20
2018-07-31T06:32:19.302Z,6.53
2018-07-31T06:36:59.695Z,6.30
2018-07-31T06:41:41.362Z,6.40
2018-07-31T06:46:22.047Z,7.17
2018-07-31T06:51:03.144Z,5.73
2018-07-31T06:55:44.704Z,5.67
2018-07-31T07:00:25.048Z,6.20
2018-07-31T07:05:06.732Z,5.10
2018-07-31T07:09:47.355Z,6.60
2018-07-31T07:14:27.459Z,5.53
2018-07-31T07:19:08.712Z,4.90
2018-07-31T07:23:48.767Z,4.03
2018-07-31T07:28:28.877Z,4.40
2018-07-31T07:33:10.170Z,3.67
2018-07-31T07:37:50.362Z,3.37
2018-07-31T07:42:31.059Z,4.37
2018-07-31T07:47:11.441Z,3.50
2018-07-31T07:51:52.223Z,2.77
2018-07-31T07:56:33.091Z,3.00
2018-07-31T08:01:13.851Z,2.50
2018-07-31T08:05:55.060Z,2.70
2018-07-31T08:10:34.631Z,3.00
2018-07-31T08:15:14.814Z,2.60
2018-07-31T08:19:55.662Z,2.20
2018-07-31T08:24:35.833Z,2.63
2018-07-31T08:29:17.266Z,2.00
2018-07-31T08:33:58.087Z,1.90
2018-07-31T08:38:38.814Z,1.73
2018-07-31T08:43:20.377Z,2.00
2018-07-31T08:48:00.476Z,1.70
2018-07-31T08:52:41.340Z,1.60
2018-07-31T08:57:21.526Z,1.67
2018-07-31T09:02:01.820Z,1.60
2018-07-31T09:06:42.388Z,1.33
2018-07-31T09:11:24.055Z,1.30
2018-07-31T09:16:05.071Z,1.47
2018-07-31T09:20:45.525Z,1.23
2018-07-31T09:25:26.171Z,1.40
2018-07-31T09:30:07.211Z,1.40
2018-07-31T09:34:47.544Z,1.50
2018-07-31T09:39:28.171Z,1.70
2018-07-31T09:44:09.072Z,2.20
2018-07-31T09:48:49.265Z,1.60
2018-07-31T09:53:31.650Z,1.70
2018-07-31T09:58:11.818Z,1.60
2018-07-31T10:02:53.511Z,1.60
2018-07-31T10:07:34.080Z,1.70
2018-07-31T10:12:14.404Z,1.47
2018-07-31T10:16:55.022Z,1.80
2018-07-31T10:21:35.655Z,2.20
2018-07-31T10:26:15.704Z,2.07
2018-07-31T10:30:56.002Z,1.90
2018-07-31T10:35:36.754Z,1.80
2018-07-31T10:40:16.787Z,2.20
2018-07-31T10:44:57.347Z,2.00
2018-07-31T10:49:37.496Z,1.70
2018-07-31T10:54:18.529Z,1.83
2018-07-31T10:58:59.085Z,2.20
2018-07-31T11:03:39.828Z,2.27
2018-07-31T11:08:19.995Z,2.00
2018-07-31T11:13:00.119Z,1.80
2018-07-31T11:17:40.352Z,2.10
2018-07-31T11:22:20.779Z,2.20
2018-07-31T11:27:00.875Z,2.70
2018-07-31T11:31:41.096Z,1.80
2018-07-31T11:36:21.504Z,2.23
2018-07-31T11:41:02.163Z,1.97
2018-07-31T11:45:42.823Z,2.10
2018-07-31T11:50:27.573Z,1.80
2018-07-31T11:55:09.856Z,1.90
2018-07-31T11:59:51.800Z,1.80
2018-07-31T12:04:31.613Z,2.00
2018-07-31T12:09:14.424Z,2.20
2018-07-31T12:13:55.669Z,1.83
2018-07-31T12:18:39.947Z,1.70
2018-07-31T12:23:20.628Z,1.73
2018-07-31T12:28:01.755Z,1.60
2018-07-31T12:32:42.498Z,1.70
2018-07-31T12:37:23.273Z,1.60
2018-07-31T12:42:03.619Z,1.60
2018-07-31T12:46:44.374Z,1.60
2018-07-31T12:51:26.786Z,1.73
2018-07-31T12:56:07.289Z,1.80
2018-07-31T13:00:48.499Z,1.90
2018-07-31T13:05:28.544Z,1.90
2018-07-31T13:10:10.514Z,1.50
2018-07-31T13:14:52.374Z,1.70
2018-07-31T13:19:33.259Z,1.50
2018-07-31T13:24:15.131Z,1.70
2018-07-31T13:28:56.985Z,1.67
2018-07-31T13:33:39.299Z,1.63
2018-07-31T13:38:19.873Z,1.60
2018-07-31T13:43:02.677Z,1.83
2018-07-31T13:47:43.415Z,2.00
2018-07-31T13:52:25.254Z,1.80
2018-07-31T13:57:06.959Z,1.83
2018-07-31T14:01:47.216Z,1.83
2018-07-31T14:06:27.438Z,1.67
2018-07-31T14:11:08.604Z,2.20
2018-07-31T14:15:50.607Z,1.87
2018-07-31T14:20:30.822Z,1.90
2018-07-31T14:25:12.072Z,1.87
2018-07-31T14:29:53.245Z,2.27
2018-07-31T14:34:33.441Z,2.00
2018-07-31T14:39:14.094Z,1.90
2018-07-31T14:43:54.595Z,1.83
2018-07-31T14:48:35.103Z,1.90
2018-07-31T14:53:15.180Z,1.90
2018-07-31T14:57:55.526Z,2.00
2018-07-31T15:02:36.052Z,2.10
2018-07-31T15:07:15.823Z,1.97
2018-07-31T15:11:56.949Z,1.83
2018-07-31T15:16:37.945Z,2.07
2018-07-31T15:21:18.956Z,2.00
2018-07-31T15:26:01.375Z,2.00
2018-07-31T15:30:41.471Z,2.20
2018-07-31T15:35:21.845Z,1.87
2018-07-31T15:40:02.688Z,2.13
2018-07-31T15:44:44.379Z,1.63
2018-07-31T15:49:25.008Z,2.07
2018-07-31T15:54:05.005Z,2.37
2018-07-31T15:58:45.469Z,2.97
2018-07-31T16:03:25.564Z,2.13
2018-07-31T16:08:05.456Z,1.97
2018-07-31T16:12:46.238Z,2.03
2018-07-31T16:17:27.112Z,2.10
2018-07-31T16:22:07.520Z,2.00
2018-07-31T16:26:49.192Z,1.80
2018-07-31T16:31:29.352Z,2.03
2018-07-31T16:36:09.783Z,1.83
2018-07-31T16:40:49.884Z,1.70
2018-07-31T16:45:30.855Z,2.57
2018-07-31T16:50:10.955Z,1.60
2018-07-31T16:54:51.064Z,1.97
2018-07-31T16:59:31.277Z,1.87
2018-07-31T17:04:13.703Z,2.00
2018-07-31T17:08:56.938Z,1.90
2018-07-31T17:13:37.312Z,2.10
2018-07-31T17:18:19.764Z,1.97
2018-07-31T17:23:02.763Z,2.00
2018-07-31T17:27:43.512Z,2.10
2018-07-31T17:32:25.939Z,2.00
2018-07-31T17:37:07.467Z,2.10
2018-07-31T17:41:47.996Z,2.00
2018-07-31T17:46:32.759Z,1.63
2018-07-31T17:51:15.059Z,2.40
2018-07-31T17:55:55.951Z,2.10
2018-07-31T18:00:37.359Z,2.13
2018-07-31T18:05:18.983Z,2.20
2018-07-31T18:09:59.529Z,2.23
2018-07-31T18:14:41.239Z,2.40
2018-07-31T18:19:21.349Z,2.33
2018-07-31T18:24:02.503Z,2.33
2018-07-31T18:28:44.791Z,2.70
2018-07-31T18:33:24.940Z,2.60
2018-07-31T18:38:06.107Z,2.70
2018-07-31T18:42:47.268Z,3.00
2018-07-31T18:47:28.416Z,2.63
2018-07-31T18:52:10.907Z,2.73
2018-07-31T18:56:51.354Z,2.80
2018-07-31T19:01:32.960Z,2.20
2018-07-31T19:06:13.410Z,2.57
2018-07-31T19:10:55.914Z,2.90
2018-07-31T19:15:35.960Z,2.80
2018-07-31T19:20:16.732Z,2.77
2018-07-31T19:24:57.120Z,3.00
2018-07-31T19:29:39.051Z,3.00
2018-07-31T19:34:20.935Z,2.67
2018-07-31T19:39:02.241Z,2.60
2018-07-31T19:43:42.807Z,2.43
2018-07-31T19:48:24.185Z,3.17
2018-07-31T19:53:04.534Z,2.43
2018-07-31T19:57:44.707Z,2.80
2018-07-31T20:02:25.238Z,3.07
2018-07-31T20:07:06.199Z,3.27
2018-07-31T20:11:47.103Z,3.43
2018-07-31T20:16:27.400Z,3.00
2018-07-31T20:21:09.574Z,2.70
2018-07-31T20:25:50.639Z,2.80
2018-07-31T20:30:30.926Z,3.27
2018-07-31T20:35:12.495Z,2.50
2018-07-31T20:39:52.899Z,2.97
2018-07-31T20:44:33.423Z,3.23
2018-07-31T20:49:13.799Z,2.83
2018-07-31T20:53:54.133Z,2.77
2018-07-31T20:58:34.542Z,3.10
2018-07-31T21:03:17.041Z,2.87
2018-07-31T21:07:57.512Z,2.43
2018-07-31T21:12:38.543Z,2.77
2018-07-31T21:17:19.396Z,2.97
2018-07-31T21:21:59.664Z,2.90
2018-07-31T21:26:40.267Z,2.97
2018-07-31T21:31:20.331Z,2.60
2018-07-31T21:36:01.080Z,2.90
2018-07-31T21:40:42.621Z,2.80
2018-07-31T21:45:24.040Z,2.60
2018-07-31T21:50:04.476Z,3.03
2018-07-31T21:54:45.873Z,2.60
2018-07-31T21:59:26.779Z,2.50
2018-07-31T22:04:06.836Z,2.87
2018-07-31T22:08:47.509Z,2.50
2018-07-31T22:13:28.315Z,2.73
2018-07-31T22:18:08.523Z,2.30
2018-07-31T22:22:49.859Z,2.13
2018-07-31T22:27:31.668Z,2.70
2018-07-31T22:32:13.700Z,2.67
2018-07-31T22:36:53.811Z,2.30
2018-07-31T22:41:34.635Z,2.10
2018-07-31T22:46:15.431Z,2.20
2018-07-31T22:50:55.815Z,2.50
2018-07-31T22:55:36.315Z,2.30
2018-07-31T23:00:16.960Z,2.30
2018-07-31T23:04:58.329Z,2.30
2018-07-31T23:09:38.300Z,2.20
2018-07-31T23:14:18.242Z,2.00
2018-07-31T23:18:58.652Z,2.60
2018-07-31T23:23:38.683Z,2.50
2018-07-31T23:28:20.331Z,2.10
2018-07-31T23:33:01.685Z,1.87
2018-07-31T23:37:43.311Z,1.97
2018-07-31T23:42:24.211Z,2.30
2018-07-31T23:47:04.552Z,2.50
2018-07-31T23:51:46.060Z,2.10
2018-07-31T23:56:28.267Z,2.20
